Time;durP1;ratioP1;P1;durP2;ratioP2;P2;SDS_P1;SDS_P2;PMS_P1;PMS_P2;Temp;Humidity;BMP_temperature;BMP_pressure;BME280_temperature;BME280_humidity;BME280_pressure;Samples;Min_cycle;Max_cycle;Signal;HPM_P1;HPM_P2
2023/06/02 00:01:31;;;;;;;2.30;1.67;;;;;;;;;;5090917;28;20448;-71
2023/06/02 00:03:59;;;;;;;2.80;1.63;;;;;;;;;;5091890;28;20448;-71
2023/06/02 00:06:30;;;;;;;2.33;1.50;;;;;;;;;;5091815;28;20530;-71
2023/06/02 00:08:58;;;;;;;3.23;2.33;;;;;;;;;;5091659;28;20440;-72
2023/06/02 00:11:27;;;;;;;4.03;1.80;;;;;;;;;;5091200;28;20478;-71
2023/06/02 00:13:55;;;;;;;3.07;1.80;;;;;;;;;;5091779;28;20444;-71
2023/06/02 00:16:22;;;;;;;2.47;1.53;;;;;;;;;;5091549;28;20807;-71
2023/06/02 00:18:52;;;;;;;2.83;1.43;;;;;;;;;;5091099;28;20527;-71
2023/06/02 00:21:20;;;;;;;3.33;1.87;;;;;;;;;;5091142;28;20524;-71
2023/06/02 00:23:47;;;;;;;3.13;1.37;;;;;;;;;;5090582;28;20876;-71
2023/06/02 00:26:15;;;;;;;3.10;1.63;;;;;;;;;;5091296;28;20532;-70
2023/06/02 00:28:43;;;;;;;2.40;1.50;;;;;;;;;;5090687;28;20503;-71
2023/06/02 00:31:11;;;;;;;2.83;1.57;;;;;;;;;;5090925;28;20519;-72
2023/06/02 00:33:38;;;;;;;3.00;2.17;;;;;;;;;;5090485;28;20449;-71
2023/06/02 00:36:06;;;;;;;3.00;1.73;;;;;;;;;;5091511;28;20451;-71
2023/06/02 00:38:33;;;;;;;1.73;1.10;;;;;;;;;;5090410;28;20456;-71
2023/06/02 00:41:00;;;;;;;1.57;1.23;;;;;;;;;;5091366;28;20502;-71
2023/06/02 00:43:27;;;;;;;2.80;1.70;;;;;;;;;;5091055;28;20873;-71
2023/06/02 00:45:56;;;;;;;2.57;1.87;;;;;;;;;;5091080;28;20877;-71
2023/06/02 00:48:23;;;;;;;3.53;1.90;;;;;;;;;;5091425;28;20476;-70
2023/06/02 00:50:51;;;;;;;2.90;1.60;;;;;;;;;;5090277;28;21039;-71
2023/06/02 00:53:18;;;;;;;3.30;2.03;;;;;;;;;;5090818;28;20497;-71
2023/06/02 00:55:45;;;;;;;3.23;1.40;;;;;;;;;;5090639;28;20814;-71
2023/06/02 00:58:13;;;;;;;3.53;2.07;;;;;;;;;;5091323;28;20444;-71
2023/06/02 01:00:40;;;;;;;2.60;1.93;;;;;;;;;;5090096;28;20502;-71
2023/06/02 01:03:09;;;;;;;2.33;1.23;;;;;;;;;;5090355;28;20964;-71
2023/06/02 01:05:37;;;;;;;3.40;1.80;;;;;;;;;;5090555;28;20452;-70
2023/06/02 01:08:07;;;;;;;2.30;1.60;;;;;;;;;;5090681;28;20487;-71
2023/06/02 01:10:34;;;;;;;2.20;1.60;;;;;;;;;;5090340;28;20441;-71
2023/06/02 01:13:01;;;;;;;4.50;1.80;;;;;;;;;;5090683;28;20449;-71
2023/06/02 01:15:29;;;;;;;3.40;2.23;;;;;;;;;;5090427;28;20445;-71
2023/06/02 01:17:57;;;;;;;2.30;1.50;;;;;;;;;;5091159;28;20448;-71
2023/06/02 01:20:26;;;;;;;2.67;1.50;;;;;;;;;;5091059;28;20449;-70
2023/06/02 01:23:01;;;;;;;2.77;1.97;;;;;;;;;;5090412;28;20483;-70
2023/06/02 01:25:30;;;;;;;3.00;1.73;;;;;;;;;;5090536;28;20527;-72
2023/06/02 01:27:58;;;;;;;5.73;1.90;;;;;;;;;;5091105;28;20488;-71
2023/06/02 01:30:26;;;;;;;2.80;1.63;;;;;;;;;;5091042;28;20453;-71
2023/06/02 01:32:56;;;;;;;2.70;2.00;;;;;;;;;;5090484;28;20444;-71
2023/06/02 01:35:28;;;;;;;2.63;1.90;;;;;;;;;;5090643;28;20440;-71
2023/06/02 01:37:57;;;;;;;2.80;1.33;;;;;;;;;;5091013;28;20516;-69
2023/06/02 01:40:26;;;;;;;2.37;1.53;;;;;;;;;;5090745;28;20446;-69
2023/06/02 01:42:55;;;;;;;3.03;1.60;;;;;;;;;;5090483;28;20456;-70
2023/06/02 01:45:23;;;;;;;2.27;1.70;;;;;;;;;;5090758;28;20448;-70
2023/06/02 01:47:50;;;;;;;2.20;1.67;;;;;;;;;;5089959;28;20959;-70
2023/06/02 01:50:17;;;;;;;2.63;2.40;;;;;;;;;;5090953;28;20925;-69
2023/06/02 01:52:44;;;;;;;3.93;1.90;;;;;;;;;;5091844;28;20441;-69
2023/06/02 01:55:11;;;;;;;3.30;1.60;;;;;;;;;;5093854;28;20463;-69
2023/06/02 01:57:38;;;;;;;2.67;1.77;;;;;;;;;;5093608;28;20467;-71
2023/06/02 02:00:09;;;;;;;2.67;1.60;;;;;;;;;;5093934;28;20452;-69
2023/06/02 02:02:36;;;;;;;4.63;2.23;;;;;;;;;;5092635;28;20451;-69
2023/06/02 02:05:03;;;;;;;2.10;1.53;;;;;;;;;;5093901;28;20449;-69
2023/06/02 02:07:31;;;;;;;3.10;1.83;;;;;;;;;;5093230;28;20487;-70
2023/06/02 02:09:58;;;;;;;2.33;1.70;;;;;;;;;;5093642;28;20948;-71
2023/06/02 02:12:25;;;;;;;4.50;2.03;;;;;;;;;;5093780;28;20860;-70
2023/06/02 02:14:53;;;;;;;2.60;1.70;;;;;;;;;;5093613;28;20520;-70
2023/06/02 02:17:24;;;;;;;3.47;1.80;;;;;;;;;;5093850;28;20817;-70
2023/06/02 02:19:51;;;;;;;3.13;1.83;;;;;;;;;;5093219;28;20483;-70
2023/06/02 02:22:18;;;;;;;3.50;1.80;;;;;;;;;;5093245;28;20539;-69
2023/06/02 02:24:46;;;;;;;3.10;2.27;;;;;;;;;;5093195;28;20792;-70
2023/06/02 02:27:13;;;;;;;2.13;1.47;;;;;;;;;;5093493;28;20475;-70
2023/06/02 02:29:40;;;;;;;3.10;2.10;;;;;;;;;;5093167;28;20440;-70
2023/06/02 02:32:08;;;;;;;4.63;2.30;;;;;;;;;;5093088;28;20463;-70
2023/06/02 02:34:38;;;;;;;2.57;1.70;;;;;;;;;;5092982;28;20448;-70
2023/06/02 02:37:08;;;;;;;2.53;1.50;;;;;;;;;;5093500;28;20464;-70
2023/06/02 02:39:36;;;;;;;3.23;1.80;;;;;;;;;;5092985;28;20452;-70
2023/06/02 02:42:03;;;;;;;2.40;1.60;;;;;;;;;;5092772;28;20951;-70
2023/06/02 02:44:30;;;;;;;3.47;2.30;;;;;;;;;;5092363;28;20924;-70
2023/06/02 02:46:58;;;;;;;2.20;1.37;;;;;;;;;;5093283;28;20445;-71
2023/06/02 02:49:25;;;;;;;3.80;1.90;;;;;;;;;;5093120;28;21051;-70
2023/06/02 02:51:54;;;;;;;4.87;2.30;;;;;;;;;;5092575;28;20445;-70
2023/06/02 02:54:21;;;;;;;4.60;2.27;;;;;;;;;;5093003;28;20442;-71
2023/06/02 02:56:48;;;;;;;3.20;1.73;;;;;;;;;;5092100;28;20963;-69
2023/06/02 02:59:16;;;;;;;3.90;2.20;;;;;;;;;;5092811;28;20487;-70
2023/06/02 03:01:46;;;;;;;4.10;2.40;;;;;;;;;;5091921;28;20452;-70
2023/06/02 03:04:18;;;;;;;2.50;1.80;;;;;;;;;;5093271;28;20452;-69
2023/06/02 03:06:48;;;;;;;2.90;1.67;;;;;;;;;;5092017;28;20524;-69
2023/06/02 03:09:17;;;;;;;3.10;2.37;;;;;;;;;;5092377;28;20529;-69
2023/06/02 03:11:45;;;;;;;2.70;2.20;;;;;;;;;;5091891;28;20942;-69
2023/06/02 03:14:12;;;;;;;4.07;2.33;;;;;;;;;;5092330;28;20867;-71
2023/06/02 03:16:40;;;;;;;3.80;2.10;;;;;;;;;;5092081;28;20460;-70
2023/06/02 03:19:08;;;;;;;3.60;1.90;;;;;;;;;;5092575;28;20444;-70
2023/06/02 03:21:41;;;;;;;4.17;1.80;;;;;;;;;;5091325;28;20444;-70
2023/06/02 03:24:10;;;;;;;4.53;2.50;;;;;;;;;;5092606;28;20448;-70
2023/06/02 03:26:40;;;;;;;4.20;2.20;;;;;;;;;;5091807;28;20557;-69
2023/06/02 03:29:07;;;;;;;3.93;2.07;;;;;;;;;;5092597;28;20852;-70
2023/06/02 03:31:35;;;;;;;3.13;2.03;;;;;;;;;;5090946;28;20962;-70
2023/06/02 03:34:02;;;;;;;3.40;1.80;;;;;;;;;;5092239;28;20502;-70
2023/06/02 03:36:29;;;;;;;3.40;2.40;;;;;;;;;;5091211;28;20503;-70
2023/06/02 03:38:57;;;;;;;3.63;1.97;;;;;;;;;;5092300;28;20448;-70
2023/06/02 03:41:24;;;;;;;2.93;2.03;;;;;;;;;;5091672;28;20533;-70
2023/06/02 03:43:53;;;;;;;4.13;2.10;;;;;;;;;;5091572;28;20452;-70
2023/06/02 03:46:20;;;;;;;3.90;2.53;;;;;;;;;;5092052;28;20440;-70
2023/06/02 03:48:47;;;;;;;4.50;2.70;;;;;;;;;;5091470;28;20476;-70
2023/06/02 03:51:14;;;;;;;2.90;2.30;;;;;;;;;;5091498;28;20452;-69
2023/06/02 03:53:41;;;;;;;3.40;1.90;;;;;;;;;;5091200;28;20445;-70
2023/06/02 03:56:08;;;;;;;3.33;2.10;;;;;;;;;;5091526;28;20820;-70
2023/06/02 03:58:35;;;;;;;3.90;1.80;;;;;;;;;;5090915;28;20535;-70
2023/06/02 04:01:04;;;;;;;6.30;2.60;;;;;;;;;;5090946;28;20531;-70
2023/06/02 04:03:36;;;;;;;4.07;2.10;;;;;;;;;;5091339;28;20459;-70
2023/06/02 04:06:03;;;;;;;2.90;1.97;;;;;;;;;;5091735;28;20846;-70
2023/06/02 04:08:30;;;;;;;2.87;2.00;;;;;;;;;;5091059;28;20484;-71
2023/06/02 04:10:57;;;;;;;3.73;1.83;;;;;;;;;;5090884;28;20475;-70
2023/06/02 04:13:24;;;;;;;7.63;2.57;;;;;;;;;;5091690;28;20782;-70
2023/06/02 04:15:52;;;;;;;4.47;2.07;;;;;;;;;;5090361;28;20532;-70
2023/06/02 04:18:20;;;;;;;2.60;1.80;;;;;;;;;;5091680;28;20436;-71
2023/06/02 04:20:47;;;;;;;3.63;2.00;;;;;;;;;;5090649;28;20783;-71
2023/06/02 04:23:15;;;;;;;3.60;2.47;;;;;;;;;;5091180;28;20441;-70
2023/06/02 04:25:42;;;;;;;5.80;3.30;;;;;;;;;;5091027;28;20486;-70
2023/06/02 04:28:10;;;;;;;3.07;1.83;;;;;;;;;;5090754;28;20492;-70
2023/06/02 04:30:39;;;;;;;4.03;2.60;;;;;;;;;;5090552;28;20443;-70
2023/06/02 04:33:06;;;;;;;5.37;2.67;;;;;;;;;;5090551;28;20523;-70
2023/06/02 04:35:35;;;;;;;3.73;2.20;;;;;;;;;;5090745;28;20452;-70
2023/06/02 04:38:03;;;;;;;5.53;2.90;;;;;;;;;;5091441;28;20456;-70
2023/06/02 04:40:30;;;;;;;3.33;2.20;;;;;;;;;;5090456;28;20951;-70
2023/06/02 04:42:58;;;;;;;4.07;2.30;;;;;;;;;;5090970;28;20448;-70
2023/06/02 04:45:26;;;;;;;3.70;2.73;;;;;;;;;;5091423;28;20455;-71
2023/06/02 04:47:53;;;;;;;5.10;3.00;;;;;;;;;;5091257;28;20449;-70
2023/06/02 04:50:20;;;;;;;3.33;2.10;;;;;;;;;;5091228;28;20554;-70
2023/06/02 04:52:49;;;;;;;5.03;2.50;;;;;;;;;;5090204;28;21112;-70
2023/06/02 04:55:16;;;;;;;4.53;2.60;;;;;;;;;;5090891;28;20958;-70
2023/06/02 04:57:43;;;;;;;5.47;2.80;;;;;;;;;;5090173;28;20445;-70
2023/06/02 05:00:11;;;;;;;4.43;2.90;;;;;;;;;;5091071;28;20574;-70
2023/06/02 05:02:38;;;;;;;4.20;2.40;;;;;;;;;;5090077;28;20783;-70
2023/06/02 05:05:06;;;;;;;4.80;2.70;;;;;;;;;;5091064;28;20451;-70
2023/06/02 05:07:33;;;;;;;3.80;2.63;;;;;;;;;;5090243;28;20840;-70
2023/06/02 05:10:01;;;;;;;4.50;2.67;;;;;;;;;;5091036;28;20518;-70
2023/06/02 05:12:28;;;;;;;4.50;2.90;;;;;;;;;;5089669;28;20453;-71
2023/06/02 05:14:55;;;;;;;4.40;2.50;;;;;;;;;;5091396;28;20463;-70
2023/06/02 05:17:23;;;;;;;6.17;2.27;;;;;;;;;;5091084;28;20448;-70
2023/06/02 05:19:53;;;;;;;5.67;2.70;;;;;;;;;;5090456;28;20452;-71
2023/06/02 05:22:20;;;;;;;4.20;2.30;;;;;;;;;;5090113;28;20947;-70
2023/06/02 05:24:47;;;;;;;3.03;2.33;;;;;;;;;;5090354;28;20444;-71
2023/06/02 05:27:15;;;;;;;3.93;2.43;;;;;;;;;;5092337;28;20475;-71
2023/06/02 05:29:42;;;;;;;5.80;3.10;;;;;;;;;;5093396;28;20483;-71
2023/06/02 05:32:11;;;;;;;3.97;2.33;;;;;;;;;;5094387;28;20523;-70
2023/06/02 05:34:39;;;;;;;4.17;2.90;;;;;;;;;;5093855;28;20486;-71
2023/06/02 05:37:06;;;;;;;4.83;2.90;;;;;;;;;;5094714;28;20529;-71
2023/06/02 05:39:33;;;;;;;4.00;2.67;;;;;;;;;;5093952;28;20448;-71
2023/06/02 05:42:01;;;;;;;3.30;2.27;;;;;;;;;;5094124;28;20512;-71
2023/06/02 05:44:29;;;;;;;3.77;2.10;;;;;;;;;;5093984;28;20451;-75
2023/06/02 05:46:56;;;;;;;4.47;3.27;;;;;;;;;;5094392;28;20523;-70
2023/06/02 05:49:23;;;;;;;5.33;2.93;;;;;;;;;;5094334;28;20993;-70
2023/06/02 05:51:50;;;;;;;4.30;3.10;;;;;;;;;;5093434;28;20452;-70
2023/06/02 05:54:18;;;;;;;5.63;3.00;;;;;;;;;;5094236;28;20444;-70
2023/06/02 05:56:45;;;;;;;3.97;3.00;;;;;;;;;;5093639;28;20556;-70
2023/06/02 05:59:12;;;;;;;4.60;2.93;;;;;;;;;;5093960;28;20463;-70
2023/06/02 06:01:41;;;;;;;5.83;3.30;;;;;;;;;;5092659;28;20449;-70
2023/06/02 06:04:08;;;;;;;6.23;3.20;;;;;;;;;;5093316;28;20502;-70
2023/06/02 06:06:36;;;;;;;5.50;2.90;;;;;;;;;;5093396;28;20796;-70
2023/06/02 06:09:04;;;;;;;3.23;1.83;;;;;;;;;;5094060;28;20483;-70
2023/06/02 06:11:31;;;;;;;4.77;2.97;;;;;;;;;;5093177;28;20445;-70
2023/06/02 06:14:00;;;;;;;4.37;2.97;;;;;;;;;;5093767;28;20942;-71
2023/06/02 06:16:28;;;;;;;3.70;2.50;;;;;;;;;;5094140;28;20527;-75
2023/06/02 06:18:56;;;;;;;5.10;2.50;;;;;;;;;;5093938;28;20437;-70
2023/06/02 06:21:24;;;;;;;4.17;2.47;;;;;;;;;;5093621;28;20440;-70
2023/06/02 06:23:51;;;;;;;5.43;3.10;;;;;;;;;;5092951;28;20657;-70
2023/06/02 06:26:19;;;;;;;4.70;3.40;;;;;;;;;;5093399;28;20527;-70
2023/06/02 06:28:46;;;;;;;3.50;2.73;;;;;;;;;;5093042;28;20513;-70
2023/06/02 06:31:13;;;;;;;5.40;3.13;;;;;;;;;;5093267;28;20448;-70
2023/06/02 06:33:40;;;;;;;5.00;3.10;;;;;;;;;;5092775;28;20439;-70
2023/06/02 06:36:11;;;;;;;5.50;3.80;;;;;;;;;;5093595;28;20546;-71
2023/06/02 06:38:38;;;;;;;5.03;2.73;;;;;;;;;;5092375;28;20951;-70
2023/06/02 06:41:05;;;;;;;4.10;2.90;;;;;;;;;;5093186;28;20444;-70
2023/06/02 06:43:32;;;;;;;6.03;3.53;;;;;;;;;;5093013;28;20443;-70
2023/06/02 06:46:00;;;;;;;5.20;2.80;;;;;;;;;;5093153;28;20447;-70
2023/06/02 06:48:27;;;;;;;3.43;2.60;;;;;;;;;;5093353;28;20436;-70
2023/06/02 06:50:54;;;;;;;5.23;3.30;;;;;;;;;;5092977;28;20451;-70
2023/06/02 06:53:22;;;;;;;4.47;2.60;;;;;;;;;;5093254;28;20440;-70
2023/06/02 06:55:50;;;;;;;4.17;2.57;;;;;;;;;;5092473;28;20923;-70
2023/06/02 06:58:17;;;;;;;3.33;2.50;;;;;;;;;;5093261;28;20447;-70
2023/06/02 07:00:44;;;;;;;6.00;3.23;;;;;;;;;;5092283;28;20443;-70
2023/06/02 07:03:11;;;;;;;8.17;2.80;;;;;;;;;;5093063;28;20447;-70
2023/06/02 07:05:38;;;;;;;4.90;3.13;;;;;;;;;;5092406;28;20445;-70
2023/06/02 07:08:05;;;;;;;3.80;2.70;;;;;;;;;;5092619;28;20445;-72
2023/06/02 07:10:34;;;;;;;5.37;2.70;;;;;;;;;;5091698;28;20484;-77
2023/06/02 07:13:01;;;;;;;7.17;3.27;;;;;;;;;;5092586;28;20444;-71
2023/06/02 07:15:28;;;;;;;3.30;2.53;;;;;;;;;;5092208;28;20941;-75
2023/06/02 07:17:55;;;;;;;4.37;3.20;;;;;;;;;;5092245;28;20472;-72
2023/06/02 07:20:22;;;;;;;3.73;2.33;;;;;;;;;;5092450;28;20487;-72
2023/06/02 07:22:49;;;;;;;3.53;2.47;;;;;;;;;;5091588;28;20560;-75
2023/06/02 07:25:16;;;;;;;7.80;3.20;;;;;;;;;;5092801;28;20444;-73
2023/06/02 07:27:45;;;;;;;3.70;2.43;;;;;;;;;;5091538;28;20469;-71
2023/06/02 07:30:12;;;;;;;5.10;2.70;;;;;;;;;;5092327;28;20511;-74
2023/06/02 07:32:39;;;;;;;3.33;2.33;;;;;;;;;;5091535;28;20444;-71
2023/06/02 07:35:07;;;;;;;3.50;2.63;;;;;;;;;;5092159;28;20938;-71
2023/06/02 07:37:34;;;;;;;3.53;2.43;;;;;;;;;;5091478;28;20872;-71
2023/06/02 07:40:01;;;;;;;4.97;4.20;;;;;;;;;;5092103;28;20431;-71
2023/06/02 07:42:28;;;;;;;4.23;2.87;;;;;;;;;;5090776;28;20447;-72
2023/06/02 07:44:57;;;;;;;4.07;2.90;;;;;;;;;;5091506;28;20755;-70
2023/06/02 07:47:24;;;;;;;3.60;2.23;;;;;;;;;;5091916;28;20460;-71
2023/06/02 07:49:51;;;;;;;2.93;2.20;;;;;;;;;;5089719;28;20655;-72
2023/06/02 07:52:19;;;;;;;4.03;2.60;;;;;;;;;;5092061;28;20455;-71
2023/06/02 07:54:46;;;;;;;5.00;3.13;;;;;;;;;;5090846;28;20445;-74
2023/06/02 07:57:13;;;;;;;2.83;2.13;;;;;;;;;;5091984;28;20460;-71
2023/06/02 07:59:40;;;;;;;6.23;2.77;;;;;;;;;;5091458;28;20448;-70
2023/06/02 08:02:09;;;;;;;4.13;2.43;;;;;;;;;;5092086;28;20466;-71
2023/06/02 08:04:36;;;;;;;5.27;2.30;;;;;;;;;;5091238;28;20455;-69
2023/06/02 08:07:04;;;;;;;5.20;2.53;;;;;;;;;;5091167;28;20449;-69
2023/06/02 08:09:31;;;;;;;3.90;2.70;;;;;;;;;;5090643;28;20571;-69
2023/06/02 08:11:58;;;;;;;3.90;2.80;;;;;;;;;;5091656;28;20453;-76
2023/06/02 08:14:25;;;;;;;2.63;1.90;;;;;;;;;;5090950;28;20483;-68
2023/06/02 08:16:55;;;;;;;2.67;1.93;;;;;;;;;;5090332;28;20464;-68
2023/06/02 08:19:23;;;;;;;2.77;1.87;;;;;;;;;;5090952;28;20457;-70
2023/06/02 08:21:51;;;;;;;3.67;2.53;;;;;;;;;;5090089;28;20445;-69
2023/06/02 08:24:20;;;;;;;3.50;2.30;;;;;;;;;;5091442;28;20979;-71
2023/06/02 08:26:48;;;;;;;2.97;2.20;;;;;;;;;;5090388;28;20579;-69
2023/06/02 08:29:15;;;;;;;6.87;3.20;;;;;;;;;;5090713;28;20468;-69
2023/06/02 08:31:42;;;;;;;3.70;2.73;;;;;;;;;;5089993;28;20453;-73
2023/06/02 08:34:10;;;;;;;3.73;2.63;;;;;;;;;;5091069;28;20453;-71
2023/06/02 08:36:39;;;;;;;3.33;2.37;;;;;;;;;;5090474;28;20931;-72
2023/06/02 08:39:07;;;;;;;4.27;2.90;;;;;;;;;;5091529;28;20452;-72
2023/06/02 08:41:37;;;;;;;3.77;2.80;;;;;;;;;;5090429;28;20490;-71
2023/06/02 08:44:04;;;;;;;3.23;2.70;;;;;;;;;;5091076;28;20977;-71
2023/06/02 08:46:31;;;;;;;4.37;2.10;;;;;;;;;;5090785;28;20448;-72
2023/06/02 08:49:00;;;;;;;4.10;2.57;;;;;;;;;;5091363;28;20862;-71
2023/06/02 08:51:27;;;;;;;5.60;2.63;;;;;;;;;;5090655;28;20936;-71
2023/06/02 08:53:55;;;;;;;3.60;2.80;;;;;;;;;;5090916;28;20453;-71
2023/06/02 08:56:22;;;;;;;3.63;2.80;;;;;;;;;;5090894;28;20531;-71
2023/06/02 08:58:50;;;;;;;3.80;2.60;;;;;;;;;;5090162;28;20449;-71
2023/06/02 09:01:17;;;;;;;4.03;2.50;;;;;;;;;;5092617;28;20455;-71
2023/06/02 09:03:47;;;;;;;5.00;3.07;;;;;;;;;;5094639;28;20455;-71
2023/06/02 09:06:21;;;;;;;3.30;3.00;;;;;;;;;;5094891;28;20440;-71
2023/06/02 09:08:59;;;;;;;3.97;3.10;;;;;;;;;;5094238;28;20576;-70
2023/06/02 09:11:27;;;;;;;3.90;3.23;;;;;;;;;;5094672;28;20479;-72
2023/06/02 09:13:55;;;;;;;3.80;2.90;;;;;;;;;;5094740;28;20454;-70
2023/06/02 09:16:22;;;;;;;4.40;2.67;;;;;;;;;;5094691;28;20444;-71
2023/06/02 09:18:56;;;;;;;3.90;2.77;;;;;;;;;;5094055;28;20448;-71
2023/06/02 09:21:26;;;;;;;4.67;2.97;;;;;;;;;;5094651;28;20809;-71
2023/06/02 09:23:54;;;;;;;4.33;2.90;;;;;;;;;;5094954;28;20452;-71
2023/06/02 09:26:23;;;;;;;3.47;3.10;;;;;;;;;;5094493;28;20448;-71
2023/06/02 09:29:01;;;;;;;3.13;2.43;;;;;;;;;;5093960;28;20443;-71
2023/06/02 09:31:29;;;;;;;4.57;2.60;;;;;;;;;;5093983;28;20472;-72
2023/06/02 09:33:59;;;;;;;3.93;2.77;;;;;;;;;;5095030;28;20786;-72
2023/06/02 09:36:29;;;;;;;2.73;2.37;;;;;;;;;;5094860;28;20497;-71
2023/06/02 09:38:56;;;;;;;4.60;2.93;;;;;;;;;;5094894;28;20455;-70
2023/06/02 09:41:28;;;;;;;3.63;2.70;;;;;;;;;;5094066;28;20460;-71
2023/06/02 09:43:57;;;;;;;4.33;2.80;;;;;;;;;;5094611;28;20451;-70
2023/06/02 09:46:24;;;;;;;4.40;2.50;;;;;;;;;;5094083;28;20505;-71
2023/06/02 09:48:55;;;;;;;4.47;3.20;;;;;;;;;;5093466;28;20480;-70
2023/06/02 09:51:25;;;;;;;4.07;2.73;;;;;;;;;;5093929;28;20479;-70
2023/06/02 09:53:53;;;;;;;4.73;3.53;;;;;;;;;;5094016;28;20448;-70
2023/06/02 09:56:21;;;;;;;3.63;2.70;;;;;;;;;;5094101;28;20436;-70
2023/06/02 09:58:49;;;;;;;3.97;2.40;;;;;;;;;;5093481;28;20898;-71
2023/06/02 10:01:17;;;;;;;3.70;2.70;;;;;;;;;;5093581;28;20537;-71
2023/06/02 10:03:44;;;;;;;4.20;2.90;;;;;;;;;;5093534;28;20448;-70
2023/06/02 10:06:17;;;;;;;4.23;2.60;;;;;;;;;;5080517;28;20445;-71
2023/06/02 10:08:51;;;;;;;4.00;3.00;;;;;;;;;;5093240;28;20498;-71
2023/06/02 10:11:22;;;;;;;3.30;2.67;;;;;;;;;;5093425;28;20561;-71
2023/06/02 10:14:07;;;;;;;5.23;2.93;;;;;;;;;;5092299;28;20445;-70
2023/06/02 10:16:46;;;;;;;3.63;2.63;;;;;;;;;;5093314;28;20445;-69
2023/06/02 10:19:29;;;;;;;2.90;2.60;;;;;;;;;;5093476;28;20444;-70
2023/06/02 10:22:04;;;;;;;5.07;2.70;;;;;;;;;;5093569;28;20429;-70
2023/06/02 10:24:35;;;;;;;5.03;2.60;;;;;;;;;;5092842;28;20950;-70
2023/06/02 10:27:09;;;;;;;4.07;2.60;;;;;;;;;;5093304;28;20480;-71
2023/06/02 10:29:37;;;;;;;3.47;2.50;;;;;;;;;;5092800;28;20514;-70
2023/06/02 10:32:19;;;;;;;2.30;2.00;;;;;;;;;;5092784;28;20445;-70
2023/06/02 10:34:49;;;;;;;3.47;2.70;;;;;;;;;;5092965;28;20448;-70
2023/06/02 10:37:17;;;;;;;4.87;3.40;;;;;;;;;;5093765;28;20498;-70
2023/06/02 10:39:48;;;;;;;7.20;4.00;;;;;;;;;;5092816;28;20440;-72
2023/06/02 10:42:15;;;;;;;3.47;2.60;;;;;;;;;;5093068;28;20451;-70
2023/06/02 10:44:47;;;;;;;4.20;2.70;;;;;;;;;;5092425;28;20456;-71
2023/06/02 10:47:32;;;;;;;3.00;2.13;;;;;;;;;;5093275;28;20441;-71
2023/06/02 10:50:01;;;;;;;2.80;2.37;;;;;;;;;;5092456;28;20983;-71
2023/06/02 10:52:30;;;;;;;3.60;2.67;;;;;;;;;;5092702;28;20490;-73
2023/06/02 10:55:21;;;;;;;3.30;2.50;;;;;;;;;;5093319;28;20448;-71
2023/06/02 10:57:52;;;;;;;3.10;2.07;;;;;;;;;;5092488;28;20452;-72
2023/06/02 11:00:39;;;;;;;2.73;2.27;;;;;;;;;;5092685;28;20452;-72
2023/06/02 11:03:27;;;;;;;5.17;3.53;;;;;;;;;;5080858;28;20459;-72
2023/06/02 11:06:15;;;;;;;4.40;3.20;;;;;;;;;;5091774;28;20846;-71
2023/06/02 11:08:42;;;;;;;2.90;2.60;;;;;;;;;;5092152;28;20440;-72
2023/06/02 11:11:09;;;;;;;2.70;2.07;;;;;;;;;;5092125;28;20995;-72
2023/06/02 11:13:58;;;;;;;3.60;2.10;;;;;;;;;;5090133;28;20456;-71
2023/06/02 11:16:27;;;;;;;3.73;2.27;;;;;;;;;;5092651;28;20441;-71
2023/06/02 11:18:56;;;;;;;3.47;2.17;;;;;;;;;;5092132;28;20501;-71
2023/06/02 11:21:24;;;;;;;3.13;2.27;;;;;;;;;;5092299;28;20461;-70
2023/06/02 11:23:51;;;;;;;3.23;2.80;;;;;;;;;;5091937;28;20453;-71
2023/06/02 11:26:21;;;;;;;4.43;2.93;;;;;;;;;;5091899;28;20453;-71
2023/06/02 11:28:48;;;;;;;4.00;3.60;;;;;;;;;;5091536;28;20759;-70
2023/06/02 11:31:16;;;;;;;2.80;2.40;;;;;;;;;;5091637;28;20486;-71
2023/06/02 11:33:48;;;;;;;3.67;2.90;;;;;;;;;;5091815;28;20452;-71
2023/06/02 11:36:17;;;;;;;3.67;2.87;;;;;;;;;;5092270;28;20441;-71
2023/06/02 11:38:44;;;;;;;3.70;2.67;;;;;;;;;;5091425;28;21006;-70
2023/06/02 11:41:11;;;;;;;3.00;2.23;;;;;;;;;;5091690;28;20468;-71
2023/06/02 11:43:38;;;;;;;3.37;2.80;;;;;;;;;;5091652;28;20444;-70
2023/06/02 11:46:07;;;;;;;3.63;2.87;;;31.50;1.00;;;;;;5091682;28;21026;-71
2023/06/02 11:48:36;;;;;;;2.60;2.33;;;22.90;1.00;;;;;;5091507;28;20444;-71
2023/06/02 11:51:03;;;;;;;3.43;2.50;;;22.80;1.00;;;;;;5091541;28;20563;-71
2023/06/02 11:53:31;;;;;;;3.87;2.43;;;22.80;1.00;;;;;;5091830;28;20550;-71
2023/06/02 11:55:58;;;;;;;2.60;2.10;;;22.80;1.00;;;;;;5091636;28;20444;-73
2023/06/02 11:58:27;;;;;;;2.67;2.13;;;23.00;1.00;;;;;;5092147;28;20462;-71
2023/06/02 12:01:06;;;;;;;3.37;2.57;;;23.00;1.00;;;;;;5091623;28;20547;-71
2023/06/02 12:03:33;;;;;;;2.70;2.00;;;23.30;1.00;;;;;;5090998;28;20935;-71
2023/06/02 12:06:08;;;;;;;4.20;2.60;;;23.30;1.00;;;;;;5091832;28;20451;-72
2023/06/02 12:08:36;;;;;;;3.07;2.30;;;23.80;1.00;;;;;;5090838;28;20446;-71
2023/06/02 12:11:03;;;;;;;3.13;2.50;;;23.60;1.00;;;;;;5091120;28;20488;-71
2023/06/02 12:13:31;;;;;;;3.53;2.17;;;23.40;1.00;;;;;;5091092;28;20440;-72
2023/06/02 12:16:20;;;;;;;2.30;2.10;;;23.20;1.00;;;;;;5091629;28;20449;-71
2023/06/02 12:18:46;;;;;;;2.47;2.27;;;23.50;1.00;;;;;;5090722;28;20928;-70
2023/06/02 12:21:22;;;;;;;2.83;2.40;;;23.80;1.00;;;;;;5090789;28;20484;-71
2023/06/02 12:23:50;;;;;;;2.37;1.60;;;24.20;1.00;;;;;;5090954;28;20497;-72
2023/06/02 12:26:17;;;;;;;2.37;1.70;;;24.20;1.00;;;;;;5091299;28;20900;-72
2023/06/02 12:28:44;;;;;;;3.93;2.60;;;24.10;1.00;;;;;;5090761;28;20456;-70
2023/06/02 12:31:11;;;;;;;2.30;1.87;;;23.50;1.00;;;;;;5091157;28;20480;-71
2023/06/02 12:33:40;;;;;;;2.27;2.07;;;23.60;1.00;;;;;;5090629;28;20448;-71
2023/06/02 12:36:07;;;;;;;2.80;1.93;;;24.00;1.00;;;;;;5091028;28;20544;-71
2023/06/02 12:38:34;;;;;;;3.03;2.43;;;23.50;1.00;;;;;;5090676;28;20532;-71
2023/06/02 12:41:03;;;;;;;3.10;2.30;;;23.80;1.00;;;;;;5090652;28;20482;-71
2023/06/02 12:43:30;;;;;;;2.10;1.90;;;24.10;1.00;;;;;;5090665;28;20441;-71
2023/06/02 12:45:57;;;;;;;2.60;1.97;;;24.10;1.00;;;;;;5091262;28;20812;-70
2023/06/02 12:48:24;;;;;;;2.97;1.90;;;23.90;1.00;;;;;;5091281;28;20452;-70
2023/06/02 12:50:51;;;;;;;2.13;1.93;;;24.10;1.00;;;;;;5090226;28;20484;-70
2023/06/02 12:53:17;;;;;;;1.87;1.50;;;24.00;1.00;;;;;;5091293;28;20491;-71
2023/06/02 12:55:44;;;;;;;2.20;1.70;;;24.10;1.00;;;;;;5090668;28;20464;-70
2023/06/02 12:58:12;;;;;;;2.83;2.10;;;24.30;1.00;;;;;;5091551;28;20460;-70
2023/06/02 13:00:40;;;;;;;4.23;2.03;;;24.50;1.00;;;;;;5089933;28;20455;-70
2023/06/02 13:03:08;;;;;;;2.90;1.60;;;24.50;1.00;;;;;;5091114;28;20924;-71
2023/06/02 13:05:35;;;;;;;3.57;2.17;;;24.30;1.00;;;;;;5090708;28;20547;-71
2023/06/02 13:08:02;;;;;;;4.37;2.50;;;24.50;1.00;;;;;;5090958;28;20494;-71
2023/06/02 13:10:29;;;;;;;4.67;1.83;;;;;;;;;;5089712;28;20455;-71
2023/06/02 13:12:56;;;;;;;2.87;2.07;;;;;;;;;;5091395;28;20450;-70
2023/06/02 13:15:25;;;;;;;2.37;2.07;;;;;;;;;;5091193;28;20812;-71
2023/06/02 13:17:52;;;;;;;3.10;2.13;;;;;;;;;;5090413;28;20498;-70
2023/06/02 13:20:19;;;;;;;2.63;2.27;;;;;;;;;;5090296;28;20962;-70
2023/06/02 13:22:46;;;;;;;3.17;2.23;;;;;;;;;;5090376;28;20460;-71
2023/06/02 13:25:14;;;;;;;2.70;2.00;;;;;;;;;;5090666;28;20456;-71
2023/06/02 13:27:42;;;;;;;1.83;1.60;;;;;;;;;;5089960;28;20472;-71
2023/06/02 13:30:10;;;;;;;4.00;2.23;;;;;;;;;;5090522;28;20471;-71
2023/06/02 13:32:38;;;;;;;3.83;1.90;;;;;;;;;;5089883;28;20484;-70
2023/06/02 13:35:06;;;;;;;2.90;1.77;;;;;;;;;;5090872;28;20471;-71
2023/06/02 13:37:33;;;;;;;2.37;1.93;;;;;;;;;;5090373;28;20441;-73
2023/06/02 13:40:00;;;;;;;2.60;2.10;;;;;;;;;;5090325;28;20509;-73
2023/06/02 13:42:28;;;;;;;2.60;1.90;;;;;;;;;;5089951;28;20463;-73
2023/06/02 13:44:55;;;;;;;2.30;2.10;;;;;;;;;;5090593;28;20473;-72
2023/06/02 13:47:22;;;;;;;2.87;2.07;;;;;;;;;;5091135;28;20825;-72
2023/06/02 13:49:50;;;;;;;5.80;3.10;;;;;;;;;;5093341;28;20452;-69
2023/06/02 13:52:17;;;;;;;3.13;2.40;;;;;;;;;;5094182;28;20488;-71
2023/06/02 13:54:45;;;;;;;2.20;1.90;;;;;;;;;;5093650;28;20792;-71
2023/06/02 13:57:12;;;;;;;3.00;1.87;;;;;;;;;;5094325;28;20482;-71
2023/06/02 13:59:39;;;;;;;3.00;2.30;;;;;;;;;;5093066;28;20436;-71
2023/06/02 14:02:06;;;;;;;2.30;1.83;;;;;;;;;;5094094;28;20444;-71
2023/06/02 14:04:33;;;;;;;2.93;2.27;;;;;;;;;;5093439;28;20460;-71
2023/06/02 14:07:02;;;;;;;3.00;2.60;;;;;;;;;;5094106;28;20448;-71
2023/06/02 14:09:29;;;;;;;2.33;2.00;;;;;;;;;;5093178;28;20470;-71
2023/06/02 14:11:56;;;;;;;3.80;1.90;;;;;;;;;;5093857;28;20480;-71
2023/06/02 14:14:24;;;;;;;3.10;2.43;;;;;;;;;;5094036;28;20440;-70
2023/06/02 14:16:51;;;;;;;2.37;1.97;;;;;;;;;;5093294;28;20479;-70
2023/06/02 14:19:19;;;;;;;2.95;2.20;;;;;;;;;;5093603;28;20205;-71
2023/06/02 14:21:46;;;;;;;3.53;2.40;;;;;;;;;;5092505;28;20209;-73
2023/06/02 14:24:15;;;;;;;3.88;2.20;;;;;;;;;;5093834;28;20198;-72
2023/06/02 14:26:42;;;;;;;2.33;2.13;;;;;;;;;;5092445;28;20230;-75
2023/06/02 14:29:09;;;;;;;3.55;2.35;;;;;;;;;;5094047;28;20218;-72
2023/06/02 14:31:36;;;;;;;2.95;2.15;;;;;;;;;;5092319;28;20234;-73
2023/06/02 14:34:03;;;;;;;2.85;2.22;;;24.60;1.00;;;;;;5093633;28;20202;-73
2023/06/02 14:36:30;;;;;;;3.03;2.50;;;30.10;1.00;;;;;;5092961;28;20305;-74
2023/06/02 14:38:57;;;;;;;3.08;2.45;;;30.10;1.00;;;;;;5093664;28;20209;-73